createdAt,value
2022-10-31T00:01:38.899Z,1.00
2022-10-31T00:04:08.288Z,1.00
2022-10-31T00:06:36.648Z,1.00
2022-10-31T00:09:07.012Z,1.00
2022-10-31T00:11:35.578Z,1.00
2022-10-31T00:14:06.092Z,1.00
2022-10-31T00:16:34.631Z,1.00
2022-10-31T00:19:05.360Z,1.00
2022-10-31T00:21:34.423Z,1.00
2022-10-31T00:24:03.238Z,1.00
2022-10-31T00:26:33.428Z,1.00
2022-10-31T00:29:02.463Z,1.00
2022-10-31T00:31:31.334Z,1.00
2022-10-31T00:34:01.404Z,1.00
2022-10-31T00:36:30.952Z,1.00
2022-10-31T00:39:00.881Z,1.00
2022-10-31T00:41:31.550Z,1.00
2022-10-31T00:44:01.123Z,1.00
2022-10-31T00:46:29.523Z,1.00
2022-10-31T00:48:58.324Z,1.00
2022-10-31T00:51:27.912Z,1.00
2022-10-31T00:53:56.283Z,1.00
2022-10-31T00:56:25.840Z,1.00
2022-10-31T00:58:54.614Z,1.00
2022-10-31T01:01:25.413Z,1.00
2022-10-31T01:03:54.056Z,1.00
2022-10-31T01:06:22.644Z,1.00
2022-10-31T01:08:51.474Z,1.00
2022-10-31T01:11:22.868Z,1.00
2022-10-31T01:13:54.829Z,1.00
2022-10-31T01:16:26.584Z,1.00
2022-10-31T01:18:55.008Z,1.00
2022-10-31T01:21:27.287Z,1.00
2022-10-31T01:23:57.053Z,5.30
2022-10-31T01:26:28.625Z,1.00
2022-10-31T01:28:59.727Z,1.00
2022-10-31T01:31:32.779Z,1.00
2022-10-31T01:34:01.689Z,6.00
2022-10-31T01:36:40.186Z,13.00
2022-10-31T01:39:14.563Z,8.20
2022-10-31T01:41:51.556Z,13.50
2022-10-31T01:44:19.872Z,4.80
2022-10-31T01:47:03.309Z,1.00
2022-10-31T01:49:40.046Z,1.00
2022-10-31T01:52:26.223Z,1.00
2022-10-31T01:55:05.033Z,1.00
2022-10-31T01:57:35.452Z,10.20
2022-10-31T02:00:08.866Z,16.10
2022-10-31T02:02:37.736Z,1.00
2022-10-31T02:05:11.351Z,7.90
2022-10-31T02:07:45.670Z,7.40
2022-10-31T02:10:14.388Z,4.90
2022-10-31T02:12:43.464Z,11.40
2022-10-31T02:15:12.425Z,1.00
2022-10-31T02:17:40.850Z,1.00
2022-10-31T02:20:12.512Z,1.00
2022-10-31T02:22:59.928Z,9.40
2022-10-31T02:25:43.742Z,1.00
2022-10-31T02:28:27.246Z,1.00
2022-10-31T02:30:58.406Z,20.30
2022-10-31T02:33:50.237Z,25.50
2022-10-31T02:36:29.671Z,36.40
2022-10-31T02:39:10.234Z,37.60
2022-10-31T02:41:54.729Z,39.80
2022-10-31T02:44:38.682Z,20.50
2022-10-31T02:47:24.384Z,26.40
2022-10-31T02:50:08.873Z,27.50
2022-10-31T02:52:38.293Z,32.30
2022-10-31T02:55:32.702Z,27.40
2022-10-31T02:58:15.663Z,33.90
2022-10-31T03:01:10.446Z,33.50
2022-10-31T03:03:57.207Z,25.90
2022-10-31T03:06:49.646Z,33.70
2022-10-31T03:09:29.935Z,30.90
2022-10-31T03:12:11.501Z,36.60
2022-10-31T03:15:01.044Z,28.30
2022-10-31T03:17:39.540Z,35.00
2022-10-31T03:20:11.813Z,39.10
2022-10-31T03:22:44.447Z,40.00
2022-10-31T03:25:15.264Z,37.40
2022-10-31T03:27:45.833Z,35.50
2022-10-31T03:30:15.388Z,28.70
2022-10-31T03:32:53.161Z,27.50
2022-10-31T03:35:25.283Z,25.90
2022-10-31T03:37:56.276Z,25.80
2022-10-31T03:40:28.098Z,20.40
2022-10-31T03:43:04.234Z,22.70
2022-10-31T03:45:34.619Z,16.50
2022-10-31T03:48:03.393Z,14.60
2022-10-31T03:51:06.038Z,20.00
2022-10-31T03:53:47.037Z,20.30
2022-10-31T03:56:30.089Z,16.00
2022-10-31T03:59:30.610Z,11.70
2022-10-31T04:02:05.199Z,12.50
2022-10-31T04:04:34.308Z,12.50
2022-10-31T04:07:03.655Z,11.90
2022-10-31T04:09:35.553Z,6.00
2022-10-31T04:12:07.230Z,7.00
2022-10-31T04:14:39.038Z,6.30
2022-10-31T04:17:14.520Z,3.00
2022-10-31T04:19:42.981Z,1.00
2022-10-31T04:22:11.542Z,1.00
2022-10-31T04:24:41.665Z,1.00
2022-10-31T04:27:10.343Z,1.00
2022-10-31T04:29:38.707Z,1.00
2022-10-31T04:32:07.194Z,1.00
2022-10-31T04:34:35.816Z,1.00
2022-10-31T04:37:04.155Z,1.00
2022-10-31T04:39:32.885Z,1.00
2022-10-31T04:42:01.338Z,1.00
2022-10-31T04:44:29.721Z,1.00
2022-10-31T04:46:58.082Z,1.00
2022-10-31T04:49:26.524Z,1.00
2022-10-31T04:51:54.982Z,1.20
2022-10-31T04:54:23.459Z,1.00
2022-10-31T04:56:51.848Z,1.00
2022-10-31T04:59:20.231Z,1.00
2022-10-31T05:01:48.708Z,1.00
2022-10-31T05:04:17.271Z,1.00
2022-10-31T05:06:45.619Z,1.00
2022-10-31T05:09:14.015Z,1.00
2022-10-31T05:11:42.438Z,1.00
2022-10-31T05:14:10.823Z,1.00
2022-10-31T05:16:39.178Z,1.00
2022-10-31T05:19:08.138Z,1.00
2022-10-31T05:21:36.546Z,1.00
2022-10-31T05:24:05.185Z,1.00
2022-10-31T05:26:34.071Z,1.00
2022-10-31T05:29:02.531Z,2.00
2022-10-31T05:31:30.946Z,1.00
2022-10-31T05:33:59.353Z,1.00
2022-10-31T05:36:27.751Z,1.00
2022-10-31T05:38:56.137Z,2.10
2022-10-31T05:41:24.658Z,1.00
2022-10-31T05:43:53.105Z,2.40
2022-10-31T05:46:21.544Z,3.90
2022-10-31T05:48:50.012Z,3.60
2022-10-31T05:51:18.418Z,5.50
2022-10-31T05:53:49.276Z,4.90
2022-10-31T05:56:17.819Z,6.30
2022-10-31T05:58:46.215Z,6.40
2022-10-31T06:01:14.685Z,6.30
2022-10-31T06:03:43.116Z,7.80
2022-10-31T06:06:11.485Z,5.70
2022-10-31T06:08:40.039Z,7.70
2022-10-31T06:11:08.516Z,8.80
2022-10-31T06:13:36.868Z,4.00
2022-10-31T06:16:05.428Z,1.00
2022-10-31T06:18:33.876Z,1.90
2022-10-31T06:21:02.415Z,5.00
2022-10-31T06:23:30.848Z,1.40
2022-10-31T06:25:59.289Z,1.30
2022-10-31T06:28:27.624Z,1.00
2022-10-31T06:30:55.992Z,1.00
2022-10-31T06:33:24.596Z,1.00
2022-10-31T06:35:52.987Z,1.00
2022-10-31T06:38:21.356Z,1.00
2022-10-31T06:40:49.836Z,1.00
2022-10-31T06:43:18.213Z,1.00
2022-10-31T06:45:46.667Z,1.00
2022-10-31T06:48:17.913Z,1.00
2022-10-31T06:50:46.795Z,1.00
2022-10-31T06:53:16.182Z,1.00
2022-10-31T06:55:45.188Z,1.00
2022-10-31T06:58:13.761Z,1.00
2022-10-31T07:00:45.358Z,1.00
2022-10-31T07:03:15.803Z,1.00
2022-10-31T07:05:44.983Z,1.00
2022-10-31T07:08:15.717Z,1.00
2022-10-31T07:10:45.342Z,1.00
2022-10-31T07:13:16.001Z,1.00
2022-10-31T07:15:45.586Z,1.00
2022-10-31T07:18:14.512Z,1.00
2022-10-31T07:20:43.011Z,1.00
2022-10-31T07:23:14.907Z,1.00
2022-10-31T07:25:43.735Z,1.00
2022-10-31T07:28:12.993Z,1.00
2022-10-31T07:30:41.585Z,1.00
2022-10-31T07:33:11.166Z,1.00
2022-10-31T07:35:39.775Z,1.00
2022-10-31T07:38:12.583Z,1.00
2022-10-31T07:40:42.109Z,1.00
2022-10-31T07:43:14.583Z,1.00
2022-10-31T07:45:43.739Z,1.00
2022-10-31T07:48:12.362Z,1.00
2022-10-31T07:50:41.083Z,1.00
2022-10-31T07:53:12.628Z,1.00
2022-10-31T07:55:41.838Z,1.00
2022-10-31T07:58:18.207Z,1.00
2022-10-31T08:00:49.891Z,1.00
2022-10-31T08:03:20.755Z,1.00
2022-10-31T08:05:49.263Z,1.00
2022-10-31T08:08:17.997Z,1.00
2022-10-31T08:10:46.435Z,1.00
2022-10-31T08:13:16.098Z,1.00
2022-10-31T08:15:44.743Z,1.00
2022-10-31T08:18:16.882Z,1.00
2022-10-31T08:20:46.012Z,1.00
2022-10-31T08:23:15.723Z,1.00
2022-10-31T08:25:44.704Z,1.00
2022-10-31T08:28:13.808Z,1.00
2022-10-31T08:30:43.253Z,1.00
2022-10-31T08:33:18.597Z,1.00
2022-10-31T08:35:47.492Z,1.00
2022-10-31T08:38:16.092Z,1.00
2022-10-31T08:40:44.832Z,1.00
2022-10-31T08:43:15.784Z,1.00
2022-10-31T08:45:45.784Z,1.00
2022-10-31T08:48:16.184Z,1.00
2022-10-31T08:50:46.774Z,1.00
2022-10-31T08:53:20.511Z,1.00
2022-10-31T08:55:49.597Z,1.00
2022-10-31T08:58:19.932Z,1.00
2022-10-31T09:00:50.566Z,1.00
2022-10-31T09:03:27.364Z,1.00
2022-10-31T09:06:04.776Z,1.00
2022-10-31T09:08:34.514Z,1.00
2022-10-31T09:11:03.963Z,1.00
2022-10-31T09:13:33.344Z,1.00
2022-10-31T09:16:02.369Z,1.00
2022-10-31T09:18:30.891Z,1.00
2022-10-31T09:21:01.285Z,1.00
2022-10-31T09:23:30.087Z,1.00
2022-10-31T09:26:01.220Z,1.00
2022-10-31T09:28:29.731Z,1.00
2022-10-31T09:30:58.146Z,1.00
2022-10-31T09:33:26.558Z,1.00
2022-10-31T09:35:55.199Z,1.00
2022-10-31T09:38:25.132Z,1.00
2022-10-31T09:41:15.589Z,1.00
2022-10-31T09:43:50.124Z,1.00
2022-10-31T09:46:35.335Z,1.00
2022-10-31T09:49:03.660Z,1.00
2022-10-31T09:51:42.657Z,1.00
2022-10-31T09:54:16.977Z,1.00
2022-10-31T09:56:46.751Z,1.00
2022-10-31T09:59:32.058Z,1.00
2022-10-31T10:02:18.547Z,1.00
2022-10-31T10:05:03.248Z,1.00
2022-10-31T10:07:32.190Z,1.00
2022-10-31T10:10:03.717Z,1.00
2022-10-31T10:13:09.995Z,1.00
2022-10-31T10:15:38.633Z,1.00
2022-10-31T10:18:45.216Z,1.00
2022-10-31T10:21:47.237Z,1.00
2022-10-31T10:24:33.248Z,1.00
2022-10-31T10:27:09.195Z,1.00
2022-10-31T10:30:04.522Z,1.00
2022-10-31T10:32:42.153Z,1.00
2022-10-31T10:35:35.198Z,1.00
2022-10-31T10:38:17.032Z,1.00
2022-10-31T10:40:46.051Z,1.00
2022-10-31T10:43:36.478Z,1.00
2022-10-31T10:46:32.228Z,1.00
2022-10-31T10:49:22.235Z,1.00
2022-10-31T10:52:41.751Z,1.00
2022-10-31T10:55:39.103Z,1.00
2022-10-31T10:58:10.739Z,1.00
2022-10-31T11:00:48.758Z,1.00
2022-10-31T11:03:18.468Z,1.00
2022-10-31T11:05:49.588Z,1.00
2022-10-31T11:08:28.811Z,1.00
2022-10-31T11:11:10.198Z,1.00
2022-10-31T11:13:38.931Z,1.00
2022-10-31T11:16:11.785Z,1.00
2022-10-31T11:18:44.190Z,1.00
2022-10-31T11:21:41.685Z,1.00
2022-10-31T11:24:10.146Z,1.00
2022-10-31T11:26:42.471Z,1.00
2022-10-31T11:29:24.375Z,1.00
2022-10-31T11:32:02.802Z,1.00
2022-10-31T11:34:47.721Z,1.00
2022-10-31T11:37:23.258Z,1.00
2022-10-31T11:39:58.978Z,1.00
2022-10-31T11:42:31.202Z,1.00
2022-10-31T11:45:00.010Z,1.00
2022-10-31T11:47:31.947Z,1.00
2022-10-31T11:50:04.070Z,1.00
2022-10-31T11:52:34.418Z,1.00
2022-10-31T11:55:14.884Z,1.00
2022-10-31T11:57:48.976Z,1.00
2022-10-31T12:00:29.791Z,1.00
2022-10-31T12:03:24.540Z,1.00
2022-10-31T12:06:19.813Z,1.00
2022-10-31T12:08:48.528Z,1.00
2022-10-31T12:11:32.163Z,1.00
2022-10-31T12:14:26.244Z,1.00
2022-10-31T12:17:16.635Z,1.00
2022-10-31T12:20:34.631Z,1.00
2022-10-31T12:23:08.967Z,1.00
2022-10-31T12:26:22.246Z,1.00
2022-10-31T12:28:59.824Z,1.00
2022-10-31T12:31:37.052Z,1.00
2022-10-31T12:34:49.263Z,1.00
2022-10-31T12:37:32.965Z,1.00
2022-10-31T12:40:14.198Z,1.00
2022-10-31T12:43:01.441Z,1.00
2022-10-31T12:45:39.444Z,1.00
2022-10-31T12:48:19.808Z,1.00
2022-10-31T12:50:57.461Z,1.00
2022-10-31T12:53:52.196Z,1.00
2022-10-31T12:56:33.735Z,1.00
2022-10-31T12:59:16.694Z,1.00
2022-10-31T13:01:56.133Z,1.00
2022-10-31T13:05:05.655Z,6.00
2022-10-31T13:07:48.996Z,24.00
2022-10-31T13:10:38.795Z,37.20
2022-10-31T13:13:19.776Z,49.50
2022-10-31T13:15:56.024Z,62.70
2022-10-31T13:18:31.055Z,62.90
2022-10-31T13:21:04.087Z,82.60
2022-10-31T13:23:51.699Z,94.70
2022-10-31T13:26:50.782Z,99.90
2022-10-31T13:29:32.656Z,99.90
2022-10-31T13:32:06.391Z,99.90
2022-10-31T13:34:42.593Z,99.90
2022-10-31T13:37:37.431Z,99.90
2022-10-31T13:40:05.809Z,99.90
2022-10-31T13:42:52.627Z,99.90
2022-10-31T13:45:23.660Z,99.90
2022-10-31T13:48:34.603Z,99.90
2022-10-31T13:51:11.985Z,99.90
2022-10-31T13:53:52.302Z,99.90
2022-10-31T13:56:24.144Z,99.90
2022-10-31T13:59:23.885Z,99.90
2022-10-31T14:02:15.869Z,99.90
2022-10-31T14:05:02.934Z,99.90
2022-10-31T14:07:32.416Z,99.90
2022-10-31T14:10:23.148Z,99.90
2022-10-31T14:12:52.395Z,99.90
2022-10-31T14:15:26.339Z,99.90
2022-10-31T14:17:59.428Z,99.90
2022-10-31T14:20:36.841Z,99.90
2022-10-31T14:23:15.020Z,99.90
2022-10-31T14:25:43.447Z,99.90
2022-10-31T14:28:35.016Z,99.90
2022-10-31T14:31:03.860Z,99.90
2022-10-31T14:33:33.963Z,99.90
2022-10-31T14:36:05.273Z,99.90
2022-10-31T14:39:00.766Z,99.90
2022-10-31T14:41:33.288Z,99.90
2022-10-31T14:44:23.066Z,99.90
2022-10-31T14:47:11.466Z,99.90
2022-10-31T14:49:58.087Z,99.90
2022-10-31T14:52:26.506Z,99.90
2022-10-31T14:54:58.610Z,99.90
2022-10-31T14:57:39.656Z,99.90
2022-10-31T15:00:10.608Z,99.90
2022-10-31T15:03:07.082Z,99.90
2022-10-31T15:05:43.820Z,99.90
2022-10-31T15:08:35.385Z,99.90
2022-10-31T15:11:18.920Z,99.90
2022-10-31T15:13:53.454Z,99.90
2022-10-31T15:16:33.649Z,99.90
2022-10-31T15:19:06.029Z,99.90
2022-10-31T15:21:35.620Z,99.90
2022-10-31T15:24:05.261Z,99.90
2022-10-31T15:26:45.106Z,99.90
2022-10-31T15:29:17.480Z,99.90
2022-10-31T15:32:00.198Z,99.90
2022-10-31T15:34:45.547Z,99.90
2022-10-31T15:37:19.539Z,99.90
2022-10-31T15:39:49.975Z,99.90
2022-10-31T15:42:26.378Z,99.90
2022-10-31T15:45:12.584Z,99.90
2022-10-31T15:47:47.146Z,99.90
2022-10-31T15:50:30.650Z,99.90
2022-10-31T15:52:59.510Z,99.90
2022-10-31T15:55:31.210Z,99.90
2022-10-31T15:58:03.734Z,99.90
2022-10-31T16:00:35.408Z,99.90
2022-10-31T16:03:27.037Z,99.90
2022-10-31T16:06:05.354Z,99.90
2022-10-31T16:08:37.740Z,99.90
2022-10-31T16:11:09.318Z,99.90
2022-10-31T16:13:53.624Z,99.90
2022-10-31T16:16:38.658Z,99.90
2022-10-31T16:19:14.960Z,99.90
2022-10-31T16:21:43.640Z,99.90
2022-10-31T16:24:20.460Z,99.90
2022-10-31T16:26:54.900Z,99.90
2022-10-31T16:29:45.549Z,99.90
2022-10-31T16:32:53.325Z,99.90
2022-10-31T16:35:44.683Z,99.90
2022-10-31T16:38:13.036Z,99.90
2022-10-31T16:40:41.895Z,99.90
2022-10-31T16:43:15.581Z,99.90
2022-10-31T16:45:51.763Z,99.90
2022-10-31T16:48:24.352Z,99.90
2022-10-31T16:50:55.462Z,99.90
2022-10-31T16:53:25.106Z,99.90
2022-10-31T16:56:01.187Z,99.90
2022-10-31T16:58:37.792Z,99.90
2022-10-31T17:01:08.366Z,99.90
2022-10-31T17:03:37.471Z,99.90
2022-10-31T17:06:06.172Z,99.90
2022-10-31T17:08:34.908Z,99.90
2022-10-31T17:11:03.810Z,99.90
2022-10-31T17:13:34.882Z,99.90
2022-10-31T17:16:04.614Z,99.90
2022-10-31T17:18:33.350Z,99.90
2022-10-31T17:21:04.044Z,99.90
2022-10-31T17:23:34.088Z,99.90
2022-10-31T17:26:02.496Z,99.90
2022-10-31T17:28:31.163Z,99.90
2022-10-31T17:31:00.020Z,99.90
2022-10-31T17:33:28.606Z,99.90
2022-10-31T17:35:57.053Z,99.90
2022-10-31T17:38:25.471Z,99.90
2022-10-31T17:40:53.943Z,99.90
2022-10-31T17:43:22.372Z,99.90
2022-10-31T17:45:50.708Z,99.90
2022-10-31T17:48:19.032Z,99.90
2022-10-31T17:50:47.420Z,99.90
2022-10-31T17:53:15.789Z,99.90
2022-10-31T17:55:44.162Z,99.90
2022-10-31T17:58:15.205Z,99.90
2022-10-31T18:00:45.880Z,99.90
2022-10-31T18:03:17.322Z,99.90
2022-10-31T18:05:57.209Z,99.90
2022-10-31T18:08:30.073Z,99.90
2022-10-31T18:11:01.598Z,99.90
2022-10-31T18:13:30.135Z,99.90
2022-10-31T18:15:58.912Z,99.90
2022-10-31T18:18:27.439Z,99.90
2022-10-31T18:20:59.453Z,99.90
2022-10-31T18:23:27.802Z,99.90
2022-10-31T18:25:56.588Z,99.90
2022-10-31T18:28:25.044Z,99.90
2022-10-31T18:30:53.483Z,99.90
2022-10-31T18:33:22.110Z,99.90
2022-10-31T18:35:50.551Z,99.90
2022-10-31T18:38:18.948Z,99.90
2022-10-31T18:40:47.390Z,99.90
2022-10-31T18:43:15.999Z,99.90
2022-10-31T18:45:47.461Z,99.90
2022-10-31T18:48:18.173Z,99.90
2022-10-31T18:50:46.764Z,99.90
2022-10-31T18:53:15.221Z,99.90
2022-10-31T18:55:47.540Z,99.90
2022-10-31T18:58:18.971Z,99.90
2022-10-31T19:00:47.540Z,99.90
2022-10-31T19:03:16.288Z,99.90
2022-10-31T19:05:45.155Z,99.90
2022-10-31T19:08:13.620Z,99.90
2022-10-31T19:10:42.779Z,99.90
2022-10-31T19:13:11.296Z,99.90
2022-10-31T19:15:39.718Z,99.90
2022-10-31T19:18:08.260Z,99.90
2022-10-31T19:20:40.047Z,99.90
2022-10-31T19:23:08.438Z,99.90
2022-10-31T19:25:36.980Z,99.90
2022-10-31T19:28:05.697Z,99.90
2022-10-31T19:30:34.068Z,99.90
2022-10-31T19:33:02.405Z,99.90
2022-10-31T19:35:30.904Z,99.90
2022-10-31T19:37:59.548Z,99.90
2022-10-31T19:40:28.185Z,99.90
2022-10-31T19:42:56.680Z,99.90
2022-10-31T19:45:25.067Z,99.90
2022-10-31T19:47:53.409Z,99.90
2022-10-31T19:50:21.874Z,99.90
2022-10-31T19:52:50.240Z,99.90
2022-10-31T19:55:18.629Z,99.90
2022-10-31T19:58:11.104Z,99.90
2022-10-31T20:00:35.521Z,99.90
2022-10-31T20:03:04.249Z,99.90
2022-10-31T20:05:33.679Z,99.90
2022-10-31T20:08:02.027Z,99.90
2022-10-31T20:10:30.456Z,99.90
2022-10-31T20:12:59.049Z,99.90
2022-10-31T20:15:27.593Z,99.90
2022-10-31T20:17:56.003Z,99.90
2022-10-31T20:20:24.492Z,99.90
2022-10-31T20:22:52.892Z,99.90
2022-10-31T20:25:21.316Z,99.90
2022-10-31T20:27:49.673Z,99.90
2022-10-31T20:30:18.079Z,99.90
2022-10-31T20:32:49.904Z,99.90
2022-10-31T20:35:19.525Z,99.90
2022-10-31T20:37:47.948Z,99.90
2022-10-31T20:40:16.402Z,99.90
2022-10-31T20:42:44.789Z,99.90
2022-10-31T20:45:13.262Z,99.90
2022-10-31T20:47:41.683Z,99.90
2022-10-31T20:50:10.144Z,99.90
2022-10-31T20:52:38.656Z,99.90
2022-10-31T20:55:07.936Z,99.90
2022-10-31T20:57:36.562Z,99.90
2022-10-31T21:00:06.540Z,99.90
2022-10-31T21:02:35.349Z,99.90
2022-10-31T21:05:04.444Z,99.90
2022-10-31T21:07:32.896Z,99.90
2022-10-31T21:10:01.255Z,99.90
2022-10-31T21:12:29.618Z,99.90
2022-10-31T21:14:58.003Z,99.90
2022-10-31T21:17:26.354Z,99.90
2022-10-31T21:19:54.691Z,99.90
2022-10-31T21:22:23.140Z,99.90
2022-10-31T21:24:51.475Z,99.90
2022-10-31T21:27:19.860Z,99.90
2022-10-31T21:29:48.261Z,99.90
2022-10-31T21:32:16.604Z,99.90
2022-10-31T21:34:44.946Z,99.90
2022-10-31T21:37:13.364Z,99.90
2022-10-31T21:39:43.711Z,99.90
2022-10-31T21:42:17.493Z,99.90
2022-10-31T21:44:48.903Z,99.90
2022-10-31T21:47:17.676Z,99.90
2022-10-31T21:49:46.496Z,99.90
2022-10-31T21:52:14.953Z,99.90
2022-10-31T21:54:43.417Z,99.90
2022-10-31T21:57:11.902Z,99.90
2022-10-31T21:59:42.090Z,99.90
2022-10-31T22:02:11.132Z,99.90
2022-10-31T22:04:41.880Z,99.90
2022-10-31T22:07:10.236Z,99.90
2022-10-31T22:09:39.739Z,99.90
2022-10-31T22:12:09.939Z,99.90
2022-10-31T22:14:38.320Z,99.90
2022-10-31T22:17:06.776Z,99.90
2022-10-31T22:19:35.549Z,99.90
2022-10-31T22:22:04.122Z,99.90
2022-10-31T22:24:32.552Z,99.90
2022-10-31T22:27:00.918Z,99.90
2022-10-31T22:29:29.639Z,99.90
2022-10-31T22:31:59.588Z,99.90
2022-10-31T22:34:28.971Z,99.90
2022-10-31T22:36:57.632Z,99.90
2022-10-31T22:39:26.120Z,99.90
2022-10-31T22:41:54.512Z,99.90
2022-10-31T22:44:23.097Z,99.90
2022-10-31T22:46:51.481Z,99.90
2022-10-31T22:49:19.898Z,99.90
2022-10-31T22:51:51.054Z,99.90
2022-10-31T22:54:20.882Z,99.90
2022-10-31T22:56:49.562Z,99.90
2022-10-31T22:59:18.517Z,99.90
2022-10-31T23:01:47.222Z,99.90
2022-10-31T23:04:17.238Z,99.90
2022-10-31T23:06:45.863Z,99.90
2022-10-31T23:09:17.387Z,99.90
2022-10-31T23:11:46.078Z,99.90
2022-10-31T23:14:19.501Z,99.90
2022-10-31T23:16:58.269Z,99.90
2022-10-31T23:19:30.130Z,99.90
2022-10-31T23:22:04.859Z,99.90
2022-10-31T23:24:40.381Z,99.90
2022-10-31T23:27:23.680Z,99.90
2022-10-31T23:30:00.551Z,99.90
2022-10-31T23:32:32.628Z,99.90
2022-10-31T23:35:03.787Z,99.90
2022-10-31T23:37:34.551Z,99.90
2022-10-31T23:40:03.025Z,99.90
2022-10-31T23:42:31.498Z,99.90
2022-10-31T23:44:59.852Z,99.90
2022-10-31T23:47:28.206Z,99.90
2022-10-31T23:49:56.657Z,99.90
2022-10-31T23:52:25.002Z,99.90
2022-10-31T23:54:53.395Z,99.90
2022-10-31T23:57:21.829Z,99.90
2022-10-31T23:59:50.257Z,99.90
